createdAt,value
2019-05-11T00:00:30.829Z,71.45
2019-05-11T00:03:01.942Z,71.88
2019-05-11T00:05:33.166Z,71.55
2019-05-11T00:08:04.533Z,71.21
2019-05-11T00:10:35.829Z,72.20
2019-05-11T00:13:08.773Z,73.15
2019-05-11T00:15:40.023Z,73.59
2019-05-11T00:18:11.296Z,74.71
2019-05-11T00:20:42.492Z,73.49
2019-05-11T00:23:13.799Z,74.42
2019-05-11T00:25:44.997Z,74.92
2019-05-11T00:28:16.410Z,75.04
2019-05-11T00:30:47.757Z,75.70
2019-05-11T00:33:18.976Z,75.95
2019-05-11T00:35:50.142Z,75.92
2019-05-11T00:38:21.464Z,75.80
2019-05-11T00:40:52.770Z,75.70
2019-05-11T00:43:24.142Z,75.67
2019-05-11T00:45:55.410Z,75.88
2019-05-11T00:48:26.839Z,75.57
2019-05-11T00:50:58.030Z,74.83
2019-05-11T00:53:29.309Z,74.27
2019-05-11T00:56:00.627Z,74.69
2019-05-11T00:58:31.900Z,75.57
2019-05-11T01:01:03.068Z,75.47
2019-05-11T01:03:34.432Z,75.78
2019-05-11T01:06:05.825Z,75.50
2019-05-11T01:08:37.239Z,75.45
2019-05-11T01:11:08.724Z,75.91
2019-05-11T01:13:40.228Z,76.03
2019-05-11T01:16:11.520Z,75.96
2019-05-11T01:18:42.838Z,76.06
2019-05-11T01:21:14.171Z,76.17
2019-05-11T01:23:45.650Z,76.06
2019-05-11T01:26:16.872Z,76.36
2019-05-11T01:28:48.207Z,76.67
2019-05-11T01:31:19.571Z,76.98
2019-05-11T01:33:50.822Z,77.13
2019-05-11T01:36:21.978Z,77.69
2019-05-11T01:38:53.123Z,78.13
2019-05-11T01:41:24.272Z,78.14
2019-05-11T01:43:55.443Z,78.65
2019-05-11T01:46:27.783Z,78.84
2019-05-11T01:48:59.218Z,79.04
2019-05-11T01:51:30.480Z,79.43
2019-05-11T01:54:01.740Z,79.86
2019-05-11T01:56:32.885Z,80.05
2019-05-11T01:59:04.490Z,80.38
2019-05-11T02:01:35.911Z,81.04
2019-05-11T02:04:07.216Z,81.17
2019-05-11T02:06:38.562Z,81.20
2019-05-11T02:09:10.039Z,81.03
2019-05-11T02:11:41.255Z,80.92
2019-05-11T02:14:12.534Z,81.13
2019-05-11T02:16:43.817Z,81.25
2019-05-11T02:19:15.217Z,81.53
2019-05-11T02:21:46.631Z,81.56
2019-05-11T02:24:18.341Z,81.16
2019-05-11T02:26:49.639Z,80.39
2019-05-11T02:29:20.865Z,79.05
2019-05-11T02:31:52.247Z,78.03
2019-05-11T02:34:23.436Z,77.26
2019-05-11T02:36:54.731Z,75.55
2019-05-11T02:39:26.035Z,74.07
2019-05-11T02:41:57.372Z,73.44
2019-05-11T02:44:28.729Z,73.81
2019-05-11T02:47:00.192Z,71.51
2019-05-11T02:49:31.595Z,72.73
2019-05-11T02:52:03.012Z,73.34
2019-05-11T02:54:34.316Z,69.03
2019-05-11T02:57:05.549Z,68.85
2019-05-11T02:59:36.769Z,69.89
2019-05-11T03:02:07.950Z,69.94
2019-05-11T03:04:39.150Z,69.71
2019-05-11T03:07:10.354Z,71.09
2019-05-11T03:09:41.658Z,70.98
2019-05-11T03:12:12.893Z,69.99
2019-05-11T03:14:44.189Z,70.39
2019-05-11T03:17:20.103Z,70.70
2019-05-11T03:19:51.402Z,69.71
2019-05-11T03:22:22.693Z,71.16
2019-05-11T03:24:54.053Z,69.30
2019-05-11T03:27:25.458Z,68.49
2019-05-11T03:30:00.627Z,67.99
2019-05-11T03:32:30.034Z,67.32
2019-05-11T03:35:01.315Z,62.55
2019-05-11T03:37:32.753Z,64.66
2019-05-11T03:40:08.693Z,65.97
2019-05-11T03:42:39.917Z,68.08
2019-05-11T03:45:11.828Z,66.95
2019-05-11T03:47:43.187Z,66.13
2019-05-11T03:50:14.916Z,67.26
2019-05-11T03:52:46.234Z,66.59
2019-05-11T03:55:18.109Z,69.02
2019-05-11T03:57:49.479Z,67.83
2019-05-11T04:00:21.961Z,69.69
2019-05-11T04:02:53.224Z,67.98
2019-05-11T04:05:24.714Z,69.06
2019-05-11T04:07:56.181Z,68.41
2019-05-11T04:10:28.620Z,70.17
2019-05-11T04:12:59.900Z,70.00
2019-05-11T04:15:31.213Z,70.23
2019-05-11T04:18:02.563Z,70.61
2019-05-11T04:20:33.925Z,71.08
2019-05-11T04:23:05.249Z,71.42
2019-05-11T04:25:36.530Z,71.12
2019-05-11T04:28:07.934Z,72.04
2019-05-11T04:30:39.178Z,71.35
2019-05-11T04:33:10.492Z,71.90
2019-05-11T04:35:41.873Z,72.05
2019-05-11T04:38:13.225Z,71.47
2019-05-11T04:40:44.440Z,71.40
2019-05-11T04:43:15.968Z,70.91
2019-05-11T04:45:47.250Z,71.31
2019-05-11T04:48:19.568Z,71.76
2019-05-11T04:50:51.004Z,71.64
2019-05-11T04:53:22.489Z,71.16
2019-05-11T04:55:53.920Z,71.68
2019-05-11T04:58:25.275Z,70.12
2019-05-11T05:00:56.699Z,70.45
2019-05-11T05:03:40.414Z,71.14
2019-05-11T05:06:20.808Z,69.43
2019-05-11T05:08:35.367Z,69.42
2019-05-11T05:11:06.657Z,70.39
2019-05-11T05:13:38.052Z,70.40
2019-05-11T05:16:09.496Z,68.18
2019-05-11T05:18:40.744Z,67.28
2019-05-11T05:21:12.016Z,68.40
2019-05-11T05:23:43.390Z,67.23
2019-05-11T05:26:14.790Z,67.51
2019-05-11T05:28:46.471Z,67.42
2019-05-11T05:31:17.786Z,67.63
2019-05-11T05:33:50.260Z,66.67
2019-05-11T05:36:21.523Z,65.27
2019-05-11T05:38:52.967Z,66.09
2019-05-11T05:41:24.140Z,64.70
2019-05-11T05:43:55.486Z,66.02
2019-05-11T05:46:26.916Z,65.36
2019-05-11T05:48:58.149Z,65.35
2019-05-11T05:51:29.452Z,65.04
2019-05-11T05:54:00.850Z,64.02
2019-05-11T05:56:32.147Z,65.01
2019-05-11T05:59:03.468Z,64.04
2019-05-11T06:01:34.896Z,63.36
2019-05-11T06:04:06.367Z,62.85
2019-05-11T06:06:37.633Z,61.75
2019-05-11T06:09:09.062Z,61.81
2019-05-11T06:11:40.715Z,61.17
2019-05-11T06:14:12.214Z,61.63
2019-05-11T06:16:43.536Z,61.96
2019-05-11T06:19:15.316Z,61.70
2019-05-11T06:21:46.717Z,62.13
2019-05-11T06:24:18.159Z,62.16
2019-05-11T06:26:50.028Z,61.16
2019-05-11T06:29:21.947Z,59.15
2019-05-11T06:31:53.563Z,58.85
2019-05-11T06:34:24.960Z,58.10
2019-05-11T06:36:56.478Z,56.52
2019-05-11T06:39:27.936Z,56.81
2019-05-11T06:41:59.172Z,56.42
2019-05-11T06:44:30.640Z,56.21
2019-05-11T06:47:01.952Z,55.86
2019-05-11T06:49:33.546Z,56.51
2019-05-11T06:52:05.031Z,55.56
2019-05-11T06:54:36.462Z,55.32
2019-05-11T06:57:08.084Z,54.77
2019-05-11T06:59:39.559Z,55.46
2019-05-11T07:02:10.881Z,55.70
2019-05-11T07:04:42.232Z,55.12
2019-05-11T07:07:13.544Z,54.60
2019-05-11T07:09:44.750Z,56.05
2019-05-11T07:12:16.213Z,55.35
2019-05-11T07:14:47.667Z,54.26
2019-05-11T07:17:18.939Z,54.89
2019-05-11T07:19:50.246Z,54.17
2019-05-11T07:22:21.647Z,53.52
2019-05-11T07:24:53.087Z,53.85
2019-05-11T07:27:24.396Z,54.70
2019-05-11T07:29:56.219Z,55.33
2019-05-11T07:32:29.349Z,53.82
2019-05-11T07:35:01.640Z,53.25
2019-05-11T07:37:38.281Z,53.93
2019-05-11T07:40:09.797Z,54.53
2019-05-11T07:42:41.167Z,54.01
2019-05-11T07:45:12.827Z,54.05
2019-05-11T07:47:44.256Z,54.76
2019-05-11T07:50:17.931Z,54.14
2019-05-11T07:52:48.654Z,52.88
2019-05-11T07:55:20.152Z,51.88
2019-05-11T07:57:51.441Z,51.68
2019-05-11T08:00:22.947Z,51.34
2019-05-11T08:02:55.394Z,50.57
2019-05-11T08:05:28.332Z,51.08
2019-05-11T08:07:59.755Z,50.51
2019-05-11T08:10:32.013Z,50.02
2019-05-11T08:13:03.220Z,50.15
2019-05-11T08:15:34.566Z,49.81
2019-05-11T08:18:08.362Z,49.93
2019-05-11T08:20:39.014Z,49.80
2019-05-11T08:23:12.579Z,50.11
2019-05-11T08:25:43.861Z,47.77
2019-05-11T08:28:15.091Z,46.20
2019-05-11T08:30:48.570Z,46.12
2019-05-11T08:33:19.302Z,46.44
2019-05-11T08:35:50.626Z,46.21
2019-05-11T08:38:21.882Z,46.57
2019-05-11T08:40:53.109Z,46.04
2019-05-11T08:43:24.447Z,47.05
2019-05-11T08:45:57.782Z,47.34
2019-05-11T08:48:28.893Z,47.03
2019-05-11T08:51:00.194Z,46.71
2019-05-11T08:53:31.403Z,45.57
2019-05-11T08:56:02.722Z,46.24
2019-05-11T08:58:34.130Z,47.17
2019-05-11T09:01:05.400Z,47.43
2019-05-11T09:03:38.698Z,46.62
2019-05-11T09:06:09.691Z,46.62
2019-05-11T09:08:40.738Z,47.34
2019-05-11T09:11:11.927Z,48.07
2019-05-11T09:13:43.227Z,48.61
2019-05-11T09:16:15.816Z,49.58
2019-05-11T09:18:48.067Z,50.24
2019-05-11T09:21:19.353Z,51.00
2019-05-11T09:23:51.684Z,49.92
2019-05-11T09:26:22.840Z,49.21
2019-05-11T09:28:54.116Z,49.98
2019-05-11T09:31:25.362Z,50.63
2019-05-11T09:33:58.425Z,51.44
2019-05-11T09:36:31.084Z,52.03
2019-05-11T09:39:02.286Z,52.50
2019-05-11T09:41:33.707Z,52.52
2019-05-11T09:44:05.636Z,52.56
2019-05-11T09:46:38.440Z,52.14
2019-05-11T09:49:10.008Z,52.56
2019-05-11T09:51:41.711Z,52.48
2019-05-11T09:54:13.090Z,52.78
2019-05-11T09:56:44.532Z,52.91
2019-05-11T09:59:17.908Z,53.10
2019-05-11T10:01:49.004Z,52.66
2019-05-11T10:04:20.346Z,53.24
2019-05-11T10:06:51.779Z,52.86
2019-05-11T10:09:23.538Z,54.28
2019-05-11T10:11:54.860Z,53.88
2019-05-11T10:14:28.673Z,53.89
2019-05-11T10:16:59.324Z,53.66
2019-05-11T10:19:30.703Z,53.97
2019-05-11T10:22:02.126Z,55.00
2019-05-11T10:24:33.583Z,53.78
2019-05-11T10:27:05.115Z,53.59
2019-05-11T10:29:38.223Z,53.96
2019-05-11T10:32:09.269Z,53.07
2019-05-11T10:34:40.371Z,53.66
2019-05-11T10:37:11.680Z,54.08
2019-05-11T10:39:43.078Z,53.77
2019-05-11T10:42:14.444Z,54.72
2019-05-11T10:44:47.861Z,54.44
2019-05-11T10:47:18.916Z,54.94
2019-05-11T10:49:50.340Z,54.96
2019-05-11T10:52:21.698Z,55.38
2019-05-11T10:54:53.076Z,54.50
2019-05-11T10:57:24.576Z,54.39
2019-05-11T10:59:57.950Z,55.22
2019-05-11T11:02:29.036Z,55.97
2019-05-11T11:05:00.406Z,55.60
2019-05-11T11:07:31.920Z,55.47
2019-05-11T11:10:03.941Z,56.04
2019-05-11T11:12:35.257Z,56.32
2019-05-11T11:15:08.003Z,56.37
2019-05-11T11:17:39.342Z,56.53
2019-05-11T11:20:11.050Z,57.04
2019-05-11T11:22:44.278Z,57.10
2019-05-11T11:25:17.754Z,57.14
2019-05-11T11:27:48.951Z,56.76
2019-05-11T11:30:21.415Z,57.36
2019-05-11T11:32:52.864Z,57.58
2019-05-11T11:35:24.249Z,57.75
2019-05-11T11:37:55.546Z,57.87
2019-05-11T11:40:28.173Z,57.92
2019-05-11T11:43:03.411Z,57.76
2019-05-11T11:45:34.770Z,57.77
2019-05-11T11:48:08.477Z,57.55
2019-05-11T11:50:39.250Z,57.79
2019-05-11T11:53:10.491Z,57.30
2019-05-11T11:55:41.733Z,58.14
2019-05-11T11:58:13.068Z,58.58
2019-05-11T12:00:44.376Z,57.53
2019-05-11T12:03:15.768Z,59.49
2019-05-11T12:05:47.704Z,58.08
2019-05-11T12:08:19.256Z,57.78
2019-05-11T12:10:50.584Z,58.58
2019-05-11T12:13:21.951Z,59.39
2019-05-11T12:15:53.263Z,61.75
2019-05-11T12:18:24.598Z,64.50
2019-05-11T12:20:56.005Z,66.26
2019-05-11T12:23:29.087Z,67.65
2019-05-11T12:26:00.314Z,68.59
2019-05-11T12:28:31.693Z,69.06
2019-05-11T12:31:04.494Z,69.76
2019-05-11T12:33:35.904Z,71.86
2019-05-11T12:36:07.959Z,72.51
2019-05-11T12:38:40.020Z,73.23
2019-05-11T12:41:11.363Z,73.85
2019-05-11T12:43:42.670Z,73.65
2019-05-11T12:46:14.093Z,74.08
2019-05-11T12:48:45.396Z,73.40
2019-05-11T12:51:18.697Z,72.63
2019-05-11T12:53:49.702Z,72.74
2019-05-11T12:56:21.296Z,73.87
2019-05-11T12:58:53.510Z,73.56
2019-05-11T13:01:24.880Z,73.44
2019-05-11T13:03:58.080Z,73.75
2019-05-11T13:06:29.370Z,74.03
2019-05-11T13:09:00.615Z,73.22
2019-05-11T13:11:33.626Z,72.89
2019-05-11T13:14:05.158Z,73.07
2019-05-11T13:16:37.809Z,72.57
2019-05-11T13:19:10.516Z,73.24
2019-05-11T13:21:41.958Z,74.99
2019-05-11T13:24:13.287Z,75.06
2019-05-11T13:26:44.622Z,75.21
2019-05-11T13:29:17.988Z,74.68
2019-05-11T13:31:49.024Z,75.14
2019-05-11T13:34:20.336Z,75.71
2019-05-11T13:36:51.734Z,75.62
2019-05-11T13:39:22.976Z,75.25
2019-05-11T13:41:54.410Z,76.04
2019-05-11T13:44:27.839Z,76.20
2019-05-11T13:46:58.770Z,75.55
2019-05-11T13:49:32.480Z,76.28
2019-05-11T13:52:03.194Z,76.28
2019-05-11T13:54:34.792Z,75.72
2019-05-11T13:57:08.056Z,75.11
2019-05-11T13:59:39.803Z,74.37
2019-05-11T14:02:11.415Z,73.85
2019-05-11T14:04:42.740Z,74.97
2019-05-11T14:07:14.459Z,73.90
2019-05-11T14:09:45.862Z,73.59
2019-05-11T14:12:18.225Z,73.79
2019-05-11T14:14:51.240Z,73.85
2019-05-11T14:17:24.427Z,73.13
2019-05-11T14:19:59.701Z,72.98
2019-05-11T14:22:31.404Z,72.79
2019-05-11T14:25:03.034Z,72.09
2019-05-11T14:27:34.689Z,72.32
2019-05-11T14:30:08.953Z,71.66
2019-05-11T14:32:40.204Z,73.17
2019-05-11T14:35:12.446Z,72.87
2019-05-11T14:37:44.203Z,73.20
2019-05-11T14:40:17.796Z,73.02
2019-05-11T14:42:49.861Z,72.75
2019-05-11T14:45:21.180Z,72.00
2019-05-11T14:47:52.488Z,72.45
2019-05-11T14:50:23.876Z,72.63
2019-05-11T14:52:55.328Z,72.48
2019-05-11T14:55:33.111Z,72.64
2019-05-11T14:58:08.544Z,72.51
2019-05-11T15:00:44.967Z,72.15
2019-05-11T15:03:22.197Z,72.92
2019-05-11T15:05:55.191Z,72.21
2019-05-11T15:08:28.671Z,71.19
2019-05-11T15:11:00.344Z,70.90
2019-05-11T15:13:32.595Z,70.29
2019-05-11T15:16:04.323Z,70.40
2019-05-11T15:18:44.285Z,70.60
2019-05-11T15:21:15.558Z,70.87
2019-05-11T15:23:47.763Z,70.75
2019-05-11T15:26:19.811Z,69.81
2019-05-11T15:28:52.090Z,68.87
2019-05-11T15:31:25.102Z,69.52
2019-05-11T15:33:57.724Z,69.88
2019-05-11T15:36:29.539Z,71.02
2019-05-11T15:39:00.806Z,69.98
2019-05-11T15:41:34.004Z,69.76
2019-05-11T15:44:05.416Z,70.35
2019-05-11T15:46:38.852Z,70.12
2019-05-11T15:49:09.672Z,69.49
2019-05-11T15:51:41.339Z,70.24
2019-05-11T15:54:12.685Z,70.08
2019-05-11T15:56:44.103Z,70.31
2019-05-11T15:59:15.360Z,70.41
2019-05-11T16:01:48.910Z,71.29
2019-05-11T16:04:20.908Z,71.82
2019-05-11T16:06:52.155Z,71.85
2019-05-11T16:09:23.562Z,72.63
2019-05-11T16:11:54.860Z,73.51
2019-05-11T16:14:28.195Z,74.40
2019-05-11T16:16:59.223Z,74.55
2019-05-11T16:19:30.933Z,74.92
2019-05-11T16:22:04.223Z,75.33
2019-05-11T16:24:39.821Z,75.68
2019-05-11T16:27:09.339Z,76.21
2019-05-11T16:29:40.578Z,76.21
2019-05-11T16:32:12.060Z,75.94
2019-05-11T16:34:43.682Z,75.91
2019-05-11T16:37:15.029Z,76.52
2019-05-11T16:39:47.459Z,76.57
2019-05-11T16:42:19.578Z,77.12
2019-05-11T16:44:50.917Z,77.33
2019-05-11T16:47:22.248Z,77.53
2019-05-11T16:49:53.653Z,77.81
2019-05-11T16:52:27.859Z,78.38
2019-05-11T16:54:58.448Z,78.59
2019-05-11T16:57:29.793Z,78.66
2019-05-11T17:00:01.138Z,79.06
2019-05-11T17:02:32.490Z,79.07
2019-05-11T17:05:07.690Z,79.50
2019-05-11T17:07:39.325Z,79.89
2019-05-11T17:10:10.733Z,79.76
2019-05-11T17:12:42.062Z,80.27
2019-05-11T17:15:13.538Z,80.91
2019-05-11T17:17:44.909Z,80.87
2019-05-11T17:20:18.585Z,81.25
2019-05-11T17:23:02.946Z,81.56
2019-05-11T17:25:48.366Z,81.71
2019-05-11T17:28:19.617Z,81.86
2019-05-11T17:30:51.044Z,82.22
2019-05-11T17:33:22.605Z,82.44
2019-05-11T17:35:54.394Z,82.81
2019-05-11T17:38:28.044Z,82.86
2019-05-11T17:40:58.997Z,83.34
2019-05-11T17:43:30.372Z,83.59
2019-05-11T17:46:01.938Z,83.90
2019-05-11T17:48:33.353Z,84.15
2019-05-11T17:51:18.372Z,84.23
2019-05-11T17:53:37.993Z,84.47
2019-05-11T17:56:09.534Z,84.53
2019-05-11T17:58:41.274Z,84.88
2019-05-11T18:01:12.785Z,85.06
2019-05-11T18:03:44.356Z,85.03
2019-05-11T18:06:15.760Z,85.35
2019-05-11T18:08:47.890Z,85.35
2019-05-11T18:11:19.544Z,85.15
2019-05-11T18:13:51.122Z,84.73
2019-05-11T18:16:22.428Z,84.61
2019-05-11T18:18:53.848Z,84.33
2019-05-11T18:21:25.330Z,84.53
2019-05-11T18:23:56.839Z,84.51
2019-05-11T18:26:28.666Z,84.12
2019-05-11T18:29:00.328Z,84.31
2019-05-11T18:31:31.611Z,83.94
2019-05-11T18:34:02.989Z,83.94
2019-05-11T18:36:34.599Z,83.89
2019-05-11T18:39:07.513Z,83.86
2019-05-11T18:41:39.354Z,83.83
2019-05-11T18:44:10.878Z,83.76
2019-05-11T18:46:42.181Z,83.59
2019-05-11T18:49:13.499Z,83.78
2019-05-11T18:51:44.891Z,83.89
2019-05-11T18:54:18.952Z,83.59
2019-05-11T18:56:49.274Z,83.65
2019-05-11T18:59:20.709Z,83.77
2019-05-11T19:01:53.110Z,84.13
2019-05-11T19:04:24.460Z,84.04
2019-05-11T19:06:55.785Z,84.12
2019-05-11T19:09:28.414Z,84.05
2019-05-11T19:11:59.960Z,83.94
2019-05-11T19:14:31.464Z,83.83
2019-05-11T19:17:02.996Z,83.65
2019-05-11T19:19:34.438Z,83.64
2019-05-11T19:22:05.923Z,83.42
2019-05-11T19:24:38.270Z,83.59
2019-05-11T19:27:09.851Z,83.62
2019-05-11T19:29:41.284Z,83.64
2019-05-11T19:32:12.683Z,83.57
2019-05-11T19:34:44.035Z,83.62
2019-05-11T19:37:15.484Z,83.82
2019-05-11T19:39:48.544Z,84.16
2019-05-11T19:42:20.196Z,84.18
2019-05-11T19:44:51.690Z,84.07
2019-05-11T19:47:23.136Z,84.28
2019-05-11T19:49:54.559Z,84.24
2019-05-11T19:52:28.078Z,84.13
2019-05-11T19:54:59.434Z,84.36
2019-05-11T19:57:30.858Z,84.26
2019-05-11T20:00:02.254Z,84.58
2019-05-11T20:02:33.677Z,84.98
2019-05-11T20:05:05.676Z,85.11
2019-05-11T20:07:37.841Z,85.31
2019-05-11T20:10:09.644Z,85.28
2019-05-11T20:12:41.875Z,85.25
2019-05-11T20:15:13.598Z,85.01
2019-05-11T20:17:44.830Z,84.93
2019-05-11T20:20:18.451Z,84.79
2019-05-11T20:22:49.715Z,84.44
2019-05-11T20:25:21.126Z,84.41
2019-05-11T20:27:52.394Z,84.34
2019-05-11T20:30:23.743Z,83.95
2019-05-11T20:32:55.222Z,83.63
2019-05-11T20:35:27.962Z,83.34
2019-05-11T20:37:59.710Z,83.24
2019-05-11T20:40:31.261Z,82.97
2019-05-11T20:43:02.692Z,82.59
2019-05-11T20:45:34.529Z,83.07
2019-05-11T20:48:07.946Z,83.54
2019-05-11T20:50:40.132Z,83.72
2019-05-11T20:53:11.337Z,83.56
2019-05-11T20:55:42.770Z,83.35
2019-05-11T20:58:15.209Z,82.91
2019-05-11T21:00:49.011Z,83.39
2019-05-11T21:03:19.447Z,83.23
2019-05-11T21:05:50.661Z,82.99
2019-05-11T21:08:23.228Z,83.00
2019-05-11T21:10:54.669Z,82.93
2019-05-11T21:13:28.174Z,83.42
2019-05-11T21:15:59.327Z,83.73
2019-05-11T21:18:30.703Z,83.50
2019-05-11T21:21:02.223Z,82.95
2019-05-11T21:23:33.605Z,82.71
2019-05-11T21:26:05.131Z,83.14
2019-05-11T21:28:38.045Z,83.72
2019-05-11T21:31:09.448Z,84.20
2019-05-11T21:33:40.843Z,84.24
2019-05-11T21:36:12.148Z,83.94
2019-05-11T21:38:43.544Z,83.96
2019-05-11T21:41:14.915Z,84.74
2019-05-11T21:43:48.310Z,84.97
2019-05-11T21:46:19.341Z,84.92
2019-05-11T21:48:50.779Z,84.73
2019-05-11T21:51:22.191Z,84.68
2019-05-11T21:53:53.617Z,84.56
2019-05-11T21:56:26.055Z,84.65
2019-05-11T21:58:57.417Z,84.87
2019-05-11T22:01:28.762Z,84.91
2019-05-11T22:04:00.195Z,85.30
2019-05-11T22:06:31.502Z,84.99
2019-05-11T22:09:03.067Z,85.25
2019-05-11T22:11:34.470Z,84.85
2019-05-11T22:14:08.064Z,85.00
2019-05-11T22:16:38.983Z,85.71
2019-05-11T22:19:10.551Z,86.17
2019-05-11T22:21:41.999Z,86.41
2019-05-11T22:24:13.452Z,86.55
2019-05-11T22:26:44.831Z,86.69
2019-05-11T22:29:18.196Z,86.71
2019-05-11T22:31:49.581Z,86.75
2019-05-11T22:34:20.919Z,87.17
2019-05-11T22:36:52.414Z,87.48
2019-05-11T22:39:23.888Z,88.10
2019-05-11T22:41:55.207Z,88.57
2019-05-11T22:44:27.922Z,88.81
2019-05-11T22:46:59.515Z,89.22
2019-05-11T22:49:30.841Z,89.52
2019-05-11T22:52:02.135Z,89.71
2019-05-11T22:54:33.601Z,89.83
2019-05-11T22:57:05.250Z,90.26
2019-05-11T22:59:38.441Z,90.48
2019-05-11T23:02:10.782Z,90.34
2019-05-11T23:04:42.267Z,90.51
2019-05-11T23:07:13.978Z,90.73
2019-05-11T23:09:45.232Z,90.62
2019-05-11T23:12:17.996Z,90.17
2019-05-11T23:14:51.180Z,89.96
2019-05-11T23:17:22.495Z,90.17
2019-05-11T23:19:53.879Z,90.60
2019-05-11T23:22:25.127Z,91.02
2019-05-11T23:24:58.659Z,91.17
2019-05-11T23:27:29.448Z,91.09
2019-05-11T23:30:00.658Z,90.83
2019-05-11T23:32:32.202Z,90.92
2019-05-11T23:35:08.357Z,91.11
2019-05-11T23:37:42.476Z,91.25
2019-05-11T23:40:13.242Z,91.03
2019-05-11T23:42:44.655Z,90.82
2019-05-11T23:45:18.551Z,90.97
2019-05-11T23:47:49.175Z,91.47
2019-05-11T23:50:20.542Z,91.61
2019-05-11T23:53:05.461Z,91.58
2019-05-11T23:55:25.033Z,91.52
2019-05-11T23:57:57.637Z,91.26
